sensor_id;sensor_type;location;lat;lon;timestamp;P1;durP1;ratioP1;P2;durP2;ratioP2
51866;SDS011;52862;52.504;13.480;2023-10-08T00:02:22;14.20;;;6.83;;
51866;SDS011;52862;52.504;13.480;2023-10-08T00:04:51;20.63;;;7.17;;
51866;SDS011;52862;52.504;13.480;2023-10-08T00:07:18;20.30;;;6.07;;
51866;SDS011;52862;52.504;13.480;2023-10-08T00:09:47;16.70;;;5.13;;
51866;SDS011;52862;52.504;13.480;2023-10-08T00:12:16;15.93;;;5.20;;
51866;SDS011;52862;52.504;13.480;2023-10-08T00:14:44;14.40;;;4.23;;
51866;SDS011;52862;52.504;13.480;2023-10-08T00:17:12;15.23;;;3.80;;
51866;SDS011;52862;52.504;13.480;2023-10-08T00:19:39;16.33;;;3.40;;
51866;SDS011;52862;52.504;13.480;2023-10-08T00:22:08;16.30;;;4.17;;
51866;SDS011;52862;52.504;13.480;2023-10-08T00:24:36;14.30;;;3.70;;
51866;SDS011;52862;52.504;13.480;2023-10-08T00:27:07;13.90;;;3.37;;
51866;SDS011;52862;52.504;13.480;2023-10-08T00:29:34;12.93;;;3.00;;
51866;SDS011;52862;52.504;13.480;2023-10-08T00:32:05;14.83;;;3.37;;
51866;SDS011;52862;52.504;13.480;2023-10-08T00:34:39;14.90;;;3.20;;
51866;SDS011;52862;52.504;13.480;2023-10-08T00:37:08;14.97;;;3.40;;
51866;SDS011;52862;52.504;13.480;2023-10-08T00:39:36;16.10;;;3.27;;
51866;SDS011;52862;52.504;13.480;2023-10-08T00:42:06;21.07;;;3.67;;
51866;SDS011;52862;52.504;13.480;2023-10-08T00:44:33;20.53;;;3.80;;
51866;SDS011;52862;52.504;13.480;2023-10-08T00:47:07;14.70;;;3.63;;
51866;SDS011;52862;52.504;13.480;2023-10-08T00:49:37;18.73;;;4.07;;
51866;SDS011;52862;52.504;13.480;2023-10-08T00:52:30;20.83;;;3.73;;
51866;SDS011;52862;52.504;13.480;2023-10-08T00:55:05;18.87;;;3.73;;
51866;SDS011;52862;52.504;13.480;2023-10-08T00:57:47;19.97;;;3.67;;
51866;SDS011;52862;52.504;13.480;2023-10-08T01:00:16;25.73;;;4.43;;
51866;SDS011;52862;52.504;13.480;2023-10-08T01:02:47;15.87;;;3.80;;
51866;SDS011;52862;52.504;13.480;2023-10-08T01:05:21;20.23;;;4.00;;
51866;SDS011;52862;52.504;13.480;2023-10-08T01:07:52;12.03;;;3.37;;
51866;SDS011;52862;52.504;13.480;2023-10-08T01:10:21;21.00;;;3.50;;
51866;SDS011;52862;52.504;13.480;2023-10-08T01:12:50;16.30;;;3.33;;
51866;SDS011;52862;52.504;13.480;2023-10-08T01:15:30;12.83;;;3.00;;
51866;SDS011;52862;52.504;13.480;2023-10-08T01:18:02;14.43;;;2.93;;
51866;SDS011;52862;52.504;13.480;2023-10-08T01:20:30;12.37;;;2.93;;
51866;SDS011;52862;52.504;13.480;2023-10-08T01:23:04;12.73;;;2.80;;
51866;SDS011;52862;52.504;13.480;2023-10-08T01:25:35;17.23;;;3.17;;
51866;SDS011;52862;52.504;13.480;2023-10-08T01:28:04;14.57;;;3.20;;
51866;SDS011;52862;52.504;13.480;2023-10-08T01:30:35;17.47;;;3.27;;
51866;SDS011;52862;52.504;13.480;2023-10-08T01:33:07;17.77;;;3.47;;
51866;SDS011;52862;52.504;13.480;2023-10-08T01:35:37;18.97;;;2.93;;
51866;SDS011;52862;52.504;13.480;2023-10-08T01:38:05;16.73;;;3.37;;
51866;SDS011;52862;52.504;13.480;2023-10-08T01:40:32;21.47;;;4.30;;
51866;SDS011;52862;52.504;13.480;2023-10-08T01:42:59;25.77;;;3.73;;
51866;SDS011;52862;52.504;13.480;2023-10-08T01:45:29;22.53;;;3.60;;
51866;SDS011;52862;52.504;13.480;2023-10-08T01:47:57;17.53;;;3.90;;
51866;SDS011;52862;52.504;13.480;2023-10-08T01:50:24;23.63;;;3.90;;
51866;SDS011;52862;52.504;13.480;2023-10-08T01:52:53;12.13;;;3.20;;
51866;SDS011;52862;52.504;13.480;2023-10-08T01:55:21;18.53;;;3.13;;
51866;SDS011;52862;52.504;13.480;2023-10-08T01:57:49;18.40;;;3.03;;
51866;SDS011;52862;52.504;13.480;2023-10-08T02:00:17;16.23;;;3.73;;
51866;SDS011;52862;52.504;13.480;2023-10-08T02:02:45;14.87;;;3.20;;
51866;SDS011;52862;52.504;13.480;2023-10-08T02:05:13;13.30;;;3.37;;
51866;SDS011;52862;52.504;13.480;2023-10-08T02:07:41;21.17;;;3.40;;
51866;SDS011;52862;52.504;13.480;2023-10-08T02:10:09;13.43;;;3.33;;
51866;SDS011;52862;52.504;13.480;2023-10-08T02:12:37;13.43;;;3.83;;
51866;SDS011;52862;52.504;13.480;2023-10-08T02:15:04;19.90;;;3.20;;
51866;SDS011;52862;52.504;13.480;2023-10-08T02:17:32;16.80;;;3.30;;
51866;SDS011;52862;52.504;13.480;2023-10-08T02:19:59;12.90;;;3.07;;
51866;SDS011;52862;52.504;13.480;2023-10-08T02:22:30;26.20;;;3.53;;
51866;SDS011;52862;52.504;13.480;2023-10-08T02:24:58;15.40;;;3.37;;
51866;SDS011;52862;52.504;13.480;2023-10-08T02:27:27;15.87;;;4.10;;
51866;SDS011;52862;52.504;13.480;2023-10-08T02:29:55;25.57;;;4.20;;
51866;SDS011;52862;52.504;13.480;2023-10-08T02:32:21;17.07;;;4.27;;
51866;SDS011;52862;52.504;13.480;2023-10-08T02:34:48;19.17;;;4.13;;
51866;SDS011;52862;52.504;13.480;2023-10-08T02:37:16;26.57;;;4.27;;
51866;SDS011;52862;52.504;13.480;2023-10-08T02:39:43;21.80;;;4.10;;
51866;SDS011;52862;52.504;13.480;2023-10-08T02:42:10;25.27;;;4.70;;
51866;SDS011;52862;52.504;13.480;2023-10-08T02:44:40;22.50;;;4.10;;
51866;SDS011;52862;52.504;13.480;2023-10-08T02:47:08;22.93;;;4.50;;
51866;SDS011;52862;52.504;13.480;2023-10-08T02:49:37;22.43;;;4.37;;
51866;SDS011;52862;52.504;13.480;2023-10-08T02:52:06;28.03;;;5.57;;
51866;SDS011;52862;52.504;13.480;2023-10-08T02:54:35;18.07;;;4.90;;
51866;SDS011;52862;52.504;13.480;2023-10-08T02:57:03;18.67;;;4.40;;
51866;SDS011;52862;52.504;13.480;2023-10-08T02:59:35;24.37;;;5.83;;
51866;SDS011;52862;52.504;13.480;2023-10-08T03:02:05;25.47;;;5.47;;
51866;SDS011;52862;52.504;13.480;2023-10-08T03:04:40;18.30;;;4.27;;
51866;SDS011;52862;52.504;13.480;2023-10-08T03:07:08;30.37;;;4.73;;
51866;SDS011;52862;52.504;13.480;2023-10-08T03:09:46;19.43;;;4.47;;
51866;SDS011;52862;52.504;13.480;2023-10-08T03:12:15;23.37;;;5.07;;
51866;SDS011;52862;52.504;13.480;2023-10-08T03:14:43;24.43;;;5.27;;
51866;SDS011;52862;52.504;13.480;2023-10-08T03:17:26;30.50;;;5.20;;
51866;SDS011;52862;52.504;13.480;2023-10-08T03:19:55;19.53;;;4.70;;
51866;SDS011;52862;52.504;13.480;2023-10-08T03:22:27;19.67;;;4.43;;
51866;SDS011;52862;52.504;13.480;2023-10-08T03:24:59;28.47;;;5.40;;
51866;SDS011;52862;52.504;13.480;2023-10-08T03:27:42;28.67;;;4.70;;
51866;SDS011;52862;52.504;13.480;2023-10-08T03:30:09;22.73;;;4.77;;
51866;SDS011;52862;52.504;13.480;2023-10-08T03:32:40;17.97;;;4.47;;
51866;SDS011;52862;52.504;13.480;2023-10-08T03:35:09;16.70;;;4.03;;
51866;SDS011;52862;52.504;13.480;2023-10-08T03:37:37;24.33;;;4.67;;
51866;SDS011;52862;52.504;13.480;2023-10-08T03:40:07;18.43;;;4.80;;
51866;SDS011;52862;52.504;13.480;2023-10-08T03:42:51;28.03;;;5.50;;
51866;SDS011;52862;52.504;13.480;2023-10-08T03:45:18;18.80;;;4.67;;
51866;SDS011;52862;52.504;13.480;2023-10-08T03:48:00;24.60;;;4.67;;
51866;SDS011;52862;52.504;13.480;2023-10-08T03:50:33;32.40;;;4.67;;
51866;SDS011;52862;52.504;13.480;2023-10-08T03:53:09;25.27;;;4.30;;
51866;SDS011;52862;52.504;13.480;2023-10-08T03:55:37;26.27;;;4.87;;
51866;SDS011;52862;52.504;13.480;2023-10-08T03:58:06;20.47;;;4.50;;
51866;SDS011;52862;52.504;13.480;2023-10-08T04:00:36;26.23;;;5.50;;
51866;SDS011;52862;52.504;13.480;2023-10-08T04:03:07;40.70;;;4.80;;
51866;SDS011;52862;52.504;13.480;2023-10-08T04:05:37;18.37;;;4.37;;
51866;SDS011;52862;52.504;13.480;2023-10-08T04:08:20;22.90;;;4.37;;
51866;SDS011;52862;52.504;13.480;2023-10-08T04:10:50;16.30;;;4.30;;
51866;SDS011;52862;52.504;13.480;2023-10-08T04:13:33;26.70;;;4.47;;
51866;SDS011;52862;52.504;13.480;2023-10-08T04:16:14;19.13;;;4.30;;
51866;SDS011;52862;52.504;13.480;2023-10-08T04:18:45;25.93;;;4.90;;
51866;SDS011;52862;52.504;13.480;2023-10-08T04:21:12;22.07;;;4.40;;
51866;SDS011;52862;52.504;13.480;2023-10-08T04:23:39;38.80;;;5.10;;
51866;SDS011;52862;52.504;13.480;2023-10-08T04:26:06;22.73;;;4.30;;
51866;SDS011;52862;52.504;13.480;2023-10-08T04:28:34;23.03;;;4.80;;
51866;SDS011;52862;52.504;13.480;2023-10-08T04:31:01;20.20;;;4.33;;
51866;SDS011;52862;52.504;13.480;2023-10-08T04:33:41;16.97;;;3.97;;
51866;SDS011;52862;52.504;13.480;2023-10-08T04:36:10;18.27;;;4.90;;
51866;SDS011;52862;52.504;13.480;2023-10-08T04:38:44;20.63;;;4.53;;
51866;SDS011;52862;52.504;13.480;2023-10-08T04:41:14;18.07;;;4.73;;
51866;SDS011;52862;52.504;13.480;2023-10-08T04:43:44;25.13;;;4.70;;
51866;SDS011;52862;52.504;13.480;2023-10-08T04:46:14;24.23;;;5.10;;
51866;SDS011;52862;52.504;13.480;2023-10-08T04:49:05;25.57;;;4.90;;
51866;SDS011;52862;52.504;13.480;2023-10-08T04:51:37;24.80;;;4.83;;
51866;SDS011;52862;52.504;13.480;2023-10-08T04:54:10;38.93;;;5.60;;
51866;SDS011;52862;52.504;13.480;2023-10-08T04:56:42;18.07;;;4.20;;
51866;SDS011;52862;52.504;13.480;2023-10-08T04:59:09;16.60;;;3.93;;
51866;SDS011;52862;52.504;13.480;2023-10-08T05:01:37;29.53;;;4.87;;
51866;SDS011;52862;52.504;13.480;2023-10-08T05:04:13;27.77;;;5.23;;
51866;SDS011;52862;52.504;13.480;2023-10-08T05:06:55;21.73;;;5.60;;
51866;SDS011;52862;52.504;13.480;2023-10-08T05:09:44;18.57;;;4.60;;
51866;SDS011;52862;52.504;13.480;2023-10-08T05:12:18;26.33;;;5.20;;
51866;SDS011;52862;52.504;13.480;2023-10-08T05:15:03;22.17;;;5.23;;
51866;SDS011;52862;52.504;13.480;2023-10-08T05:17:48;18.27;;;5.47;;
51866;SDS011;52862;52.504;13.480;2023-10-08T05:20:35;25.27;;;5.00;;
51866;SDS011;52862;52.504;13.480;2023-10-08T05:23:25;28.10;;;5.23;;
51866;SDS011;52862;52.504;13.480;2023-10-08T05:26:10;23.73;;;5.17;;
51866;SDS011;52862;52.504;13.480;2023-10-08T05:28:46;25.97;;;5.00;;
51866;SDS011;52862;52.504;13.480;2023-10-08T05:31:26;36.20;;;6.47;;
51866;SDS011;52862;52.504;13.480;2023-10-08T05:34:12;32.17;;;5.83;;
51866;SDS011;52862;52.504;13.480;2023-10-08T05:36:58;31.23;;;5.73;;
51866;SDS011;52862;52.504;13.480;2023-10-08T05:39:57;33.60;;;7.13;;
51866;SDS011;52862;52.504;13.480;2023-10-08T05:42:38;24.93;;;5.13;;
51866;SDS011;52862;52.504;13.480;2023-10-08T05:45:12;24.63;;;6.40;;
51866;SDS011;52862;52.504;13.480;2023-10-08T05:47:40;22.30;;;4.37;;
51866;SDS011;52862;52.504;13.480;2023-10-08T05:50:27;19.90;;;4.67;;
51866;SDS011;52862;52.504;13.480;2023-10-08T05:53:04;38.20;;;7.83;;
51866;SDS011;52862;52.504;13.480;2023-10-08T05:55:45;23.93;;;4.93;;
51866;SDS011;52862;52.504;13.480;2023-10-08T05:58:14;22.47;;;5.33;;
51866;SDS011;52862;52.504;13.480;2023-10-08T06:00:50;19.50;;;4.90;;
51866;SDS011;52862;52.504;13.480;2023-10-08T06:03:31;23.83;;;4.63;;
51866;SDS011;52862;52.504;13.480;2023-10-08T06:06:03;28.27;;;4.50;;
51866;SDS011;52862;52.504;13.480;2023-10-08T06:08:48;29.00;;;4.33;;
51866;SDS011;52862;52.504;13.480;2023-10-08T06:11:17;25.77;;;4.47;;
51866;SDS011;52862;52.504;13.480;2023-10-08T06:14:03;17.93;;;3.97;;
51866;SDS011;52862;52.504;13.480;2023-10-08T06:16:39;34.07;;;4.47;;
51866;SDS011;52862;52.504;13.480;2023-10-08T06:19:10;23.87;;;3.73;;
51866;SDS011;52862;52.504;13.480;2023-10-08T06:21:38;21.37;;;4.83;;
51866;SDS011;52862;52.504;13.480;2023-10-08T06:24:05;12.73;;;3.33;;
51866;SDS011;52862;52.504;13.480;2023-10-08T06:26:35;11.73;;;3.27;;
51866;SDS011;52862;52.504;13.480;2023-10-08T06:29:10;19.50;;;3.77;;
51866;SDS011;52862;52.504;13.480;2023-10-08T06:31:52;23.60;;;5.43;;
51866;SDS011;52862;52.504;13.480;2023-10-08T06:34:21;22.97;;;3.83;;
51866;SDS011;52862;52.504;13.480;2023-10-08T06:36:50;15.80;;;3.67;;
51866;SDS011;52862;52.504;13.480;2023-10-08T06:39:23;15.90;;;4.03;;
51866;SDS011;52862;52.504;13.480;2023-10-08T06:41:52;26.63;;;3.80;;
51866;SDS011;52862;52.504;13.480;2023-10-08T06:44:20;10.20;;;3.07;;
51866;SDS011;52862;52.504;13.480;2023-10-08T06:46:49;15.70;;;3.57;;
51866;SDS011;52862;52.504;13.480;2023-10-08T06:49:20;20.97;;;5.37;;
51866;SDS011;52862;52.504;13.480;2023-10-08T06:51:49;10.70;;;2.23;;
51866;SDS011;52862;52.504;13.480;2023-10-08T06:54:17;12.83;;;3.20;;
51866;SDS011;52862;52.504;13.480;2023-10-08T06:56:45;10.17;;;2.50;;
51866;SDS011;52862;52.504;13.480;2023-10-08T06:59:14;10.43;;;2.50;;
51866;SDS011;52862;52.504;13.480;2023-10-08T07:01:43;15.47;;;2.83;;
51866;SDS011;52862;52.504;13.480;2023-10-08T07:04:11;16.07;;;3.03;;
51866;SDS011;52862;52.504;13.480;2023-10-08T07:06:39;10.80;;;2.73;;
51866;SDS011;52862;52.504;13.480;2023-10-08T07:09:06;14.43;;;3.20;;
51866;SDS011;52862;52.504;13.480;2023-10-08T07:11:48;9.97;;;2.50;;
51866;SDS011;52862;52.504;13.480;2023-10-08T07:14:15;8.03;;;2.23;;
51866;SDS011;52862;52.504;13.480;2023-10-08T07:16:44;13.77;;;2.70;;
51866;SDS011;52862;52.504;13.480;2023-10-08T07:19:13;17.27;;;2.80;;
51866;SDS011;52862;52.504;13.480;2023-10-08T07:21:45;8.63;;;3.10;;
51866;SDS011;52862;52.504;13.480;2023-10-08T07:24:12;12.13;;;2.83;;
51866;SDS011;52862;52.504;13.480;2023-10-08T07:26:43;5.83;;;2.03;;
51866;SDS011;52862;52.504;13.480;2023-10-08T07:29:12;6.87;;;2.77;;
51866;SDS011;52862;52.504;13.480;2023-10-08T07:31:42;9.10;;;2.57;;
51866;SDS011;52862;52.504;13.480;2023-10-08T07:34:14;7.40;;;2.20;;
51866;SDS011;52862;52.504;13.480;2023-10-08T07:36:41;8.20;;;2.43;;
51866;SDS011;52862;52.504;13.480;2023-10-08T07:39:09;14.63;;;2.37;;
51866;SDS011;52862;52.504;13.480;2023-10-08T07:41:48;13.63;;;2.37;;
51866;SDS011;52862;52.504;13.480;2023-10-08T07:44:15;8.27;;;2.00;;
51866;SDS011;52862;52.504;13.480;2023-10-08T07:46:47;10.10;;;2.57;;
51866;SDS011;52862;52.504;13.480;2023-10-08T07:49:15;13.93;;;2.53;;
51866;SDS011;52862;52.504;13.480;2023-10-08T07:51:42;11.87;;;2.67;;
51866;SDS011;52862;52.504;13.480;2023-10-08T07:54:17;19.80;;;2.90;;
51866;SDS011;52862;52.504;13.480;2023-10-08T07:56:45;8.00;;;2.07;;
51866;SDS011;52862;52.504;13.480;2023-10-08T07:59:13;10.60;;;2.20;;
51866;SDS011;52862;52.504;13.480;2023-10-08T08:01:42;11.87;;;2.07;;
51866;SDS011;52862;52.504;13.480;2023-10-08T08:04:10;6.63;;;2.40;;
51866;SDS011;52862;52.504;13.480;2023-10-08T08:06:41;9.57;;;1.83;;
51866;SDS011;52862;52.504;13.480;2023-10-08T08:09:07;8.50;;;2.87;;
51866;SDS011;52862;52.504;13.480;2023-10-08T08:11:43;5.67;;;1.53;;
51866;SDS011;52862;52.504;13.480;2023-10-08T08:14:12;8.23;;;2.07;;
51866;SDS011;52862;52.504;13.480;2023-10-08T08:16:43;10.77;;;1.77;;
51866;SDS011;52862;52.504;13.480;2023-10-08T08:19:14;11.70;;;2.53;;
51866;SDS011;52862;52.504;13.480;2023-10-08T08:21:42;5.20;;;1.60;;
51866;SDS011;52862;52.504;13.480;2023-10-08T08:24:12;9.33;;;1.60;;
51866;SDS011;52862;52.504;13.480;2023-10-08T08:26:39;11.07;;;2.00;;
51866;SDS011;52862;52.504;13.480;2023-10-08T08:29:10;6.83;;;1.33;;
51866;SDS011;52862;52.504;13.480;2023-10-08T08:31:40;10.47;;;1.57;;
51866;SDS011;52862;52.504;13.480;2023-10-08T08:34:12;3.97;;;1.50;;
51866;SDS011;52862;52.504;13.480;2023-10-08T08:36:46;8.20;;;2.30;;
51866;SDS011;52862;52.504;13.480;2023-10-08T08:39:15;13.73;;;2.33;;
51866;SDS011;52862;52.504;13.480;2023-10-08T08:41:59;4.03;;;1.30;;
51866;SDS011;52862;52.504;13.480;2023-10-08T08:44:27;12.73;;;1.60;;
51866;SDS011;52862;52.504;13.480;2023-10-08T08:46:55;15.10;;;1.60;;
51866;SDS011;52862;52.504;13.480;2023-10-08T08:49:25;6.17;;;1.40;;
51866;SDS011;52862;52.504;13.480;2023-10-08T08:51:55;6.97;;;1.77;;
51866;SDS011;52862;52.504;13.480;2023-10-08T08:54:26;7.47;;;1.80;;
51866;SDS011;52862;52.504;13.480;2023-10-08T08:56:56;3.03;;;1.40;;
51866;SDS011;52862;52.504;13.480;2023-10-08T08:59:25;4.60;;;1.30;;
51866;SDS011;52862;52.504;13.480;2023-10-08T09:01:56;4.33;;;0.97;;
51866;SDS011;52862;52.504;13.480;2023-10-08T09:04:28;3.00;;;1.00;;
51866;SDS011;52862;52.504;13.480;2023-10-08T09:06:56;3.30;;;1.30;;
51866;SDS011;52862;52.504;13.480;2023-10-08T09:09:30;3.83;;;1.10;;
51866;SDS011;52862;52.504;13.480;2023-10-08T09:11:57;3.83;;;1.07;;
51866;SDS011;52862;52.504;13.480;2023-10-08T09:14:25;5.07;;;1.30;;
51866;SDS011;52862;52.504;13.480;2023-10-08T09:16:55;4.77;;;1.30;;
51866;SDS011;52862;52.504;13.480;2023-10-08T09:19:22;8.10;;;1.70;;
51866;SDS011;52862;52.504;13.480;2023-10-08T09:22:00;8.80;;;1.50;;
51866;SDS011;52862;52.504;13.480;2023-10-08T09:24:29;2.60;;;1.03;;
51866;SDS011;52862;52.504;13.480;2023-10-08T09:26:56;5.63;;;1.30;;
51866;SDS011;52862;52.504;13.480;2023-10-08T09:29:24;2.40;;;1.00;;
51866;SDS011;52862;52.504;13.480;2023-10-08T09:31:51;2.73;;;1.70;;
51866;SDS011;52862;52.504;13.480;2023-10-08T09:34:21;5.33;;;1.10;;
51866;SDS011;52862;52.504;13.480;2023-10-08T09:36:52;6.83;;;1.17;;
51866;SDS011;52862;52.504;13.480;2023-10-08T09:39:21;4.17;;;1.17;;
51866;SDS011;52862;52.504;13.480;2023-10-08T09:41:49;1.43;;;0.80;;
51866;SDS011;52862;52.504;13.480;2023-10-08T09:44:17;4.07;;;1.20;;
51866;SDS011;52862;52.504;13.480;2023-10-08T09:46:47;2.80;;;1.10;;
51866;SDS011;52862;52.504;13.480;2023-10-08T09:49:31;5.93;;;1.00;;
51866;SDS011;52862;52.504;13.480;2023-10-08T09:52:01;2.27;;;0.97;;
51866;SDS011;52862;52.504;13.480;2023-10-08T09:54:33;1.90;;;0.83;;
51866;SDS011;52862;52.504;13.480;2023-10-08T09:57:05;1.40;;;0.90;;
51866;SDS011;52862;52.504;13.480;2023-10-08T09:59:33;3.07;;;1.10;;
51866;SDS011;52862;52.504;13.480;2023-10-08T10:02:01;1.40;;;0.80;;
51866;SDS011;52862;52.504;13.480;2023-10-08T10:04:29;2.33;;;1.00;;
51866;SDS011;52862;52.504;13.480;2023-10-08T10:07:00;4.97;;;1.30;;
51866;SDS011;52862;52.504;13.480;2023-10-08T10:09:45;4.03;;;1.03;;
51866;SDS011;52862;52.504;13.480;2023-10-08T10:12:15;5.37;;;1.10;;
51866;SDS011;52862;52.504;13.480;2023-10-08T10:14:52;2.30;;;1.20;;
51866;SDS011;52862;52.504;13.480;2023-10-08T10:17:21;13.10;;;0.90;;
51866;SDS011;52862;52.504;13.480;2023-10-08T10:20:10;1.93;;;0.90;;
51866;SDS011;52862;52.504;13.480;2023-10-08T10:22:39;3.00;;;1.10;;
51866;SDS011;52862;52.504;13.480;2023-10-08T10:25:08;3.17;;;1.00;;
51866;SDS011;52862;52.504;13.480;2023-10-08T10:27:42;3.37;;;1.30;;
51866;SDS011;52862;52.504;13.480;2023-10-08T10:30:47;1.40;;;0.90;;
51866;SDS011;52862;52.504;13.480;2023-10-08T10:33:15;3.70;;;1.03;;
51866;SDS011;52862;52.504;13.480;2023-10-08T10:35:48;3.90;;;1.33;;
51866;SDS011;52862;52.504;13.480;2023-10-08T10:38:18;8.70;;;1.67;;
51866;SDS011;52862;52.504;13.480;2023-10-08T10:40:48;6.87;;;1.10;;
51866;SDS011;52862;52.504;13.480;2023-10-08T10:43:23;3.53;;;1.20;;
51866;SDS011;52862;52.504;13.480;2023-10-08T10:45:58;4.43;;;1.40;;
51866;SDS011;52862;52.504;13.480;2023-10-08T10:48:31;4.83;;;1.07;;
51866;SDS011;52862;52.504;13.480;2023-10-08T10:51:00;2.40;;;1.10;;
51866;SDS011;52862;52.504;13.480;2023-10-08T10:53:34;2.70;;;1.00;;
51866;SDS011;52862;52.504;13.480;2023-10-08T10:56:13;3.13;;;1.10;;
51866;SDS011;52862;52.504;13.480;2023-10-08T10:58:45;3.70;;;1.30;;
51866;SDS011;52862;52.504;13.480;2023-10-08T11:01:22;2.13;;;1.10;;
51866;SDS011;52862;52.504;13.480;2023-10-08T11:03:56;2.23;;;1.20;;
51866;SDS011;52862;52.504;13.480;2023-10-08T11:06:23;2.03;;;0.70;;
51866;SDS011;52862;52.504;13.480;2023-10-08T11:08:51;2.93;;;1.03;;
51866;SDS011;52862;52.504;13.480;2023-10-08T11:11:25;2.30;;;1.00;;
51866;SDS011;52862;52.504;13.480;2023-10-08T11:13:55;3.80;;;0.80;;
51866;SDS011;52862;52.504;13.480;2023-10-08T11:16:25;2.53;;;1.00;;
51866;SDS011;52862;52.504;13.480;2023-10-08T11:18:52;2.90;;;1.00;;
51866;SDS011;52862;52.504;13.480;2023-10-08T11:21:23;6.03;;;1.20;;
51866;SDS011;52862;52.504;13.480;2023-10-08T11:23:51;3.23;;;1.03;;
51866;SDS011;52862;52.504;13.480;2023-10-08T11:26:20;1.57;;;1.00;;
51866;SDS011;52862;52.504;13.480;2023-10-08T11:28:57;3.23;;;0.97;;
51866;SDS011;52862;52.504;13.480;2023-10-08T11:31:26;2.53;;;1.20;;
51866;SDS011;52862;52.504;13.480;2023-10-08T11:33:58;3.97;;;1.17;;
51866;SDS011;52862;52.504;13.480;2023-10-08T11:36:27;1.80;;;1.10;;
51866;SDS011;52862;52.504;13.480;2023-10-08T11:38:54;4.73;;;1.47;;
51866;SDS011;52862;52.504;13.480;2023-10-08T11:41:27;2.17;;;1.00;;
51866;SDS011;52862;52.504;13.480;2023-10-08T11:43:55;6.27;;;1.77;;
51866;SDS011;52862;52.504;13.480;2023-10-08T11:46:23;4.33;;;1.40;;
51866;SDS011;52862;52.504;13.480;2023-10-08T11:48:54;2.30;;;1.10;;
51866;SDS011;52862;52.504;13.480;2023-10-08T11:51:24;7.00;;;1.00;;
51866;SDS011;52862;52.504;13.480;2023-10-08T11:53:55;2.00;;;1.00;;
51866;SDS011;52862;52.504;13.480;2023-10-08T11:56:22;1.93;;;0.90;;
51866;SDS011;52862;52.504;13.480;2023-10-08T11:58:50;3.47;;;1.17;;
51866;SDS011;52862;52.504;13.480;2023-10-08T12:01:18;1.63;;;0.80;;
51866;SDS011;52862;52.504;13.480;2023-10-08T12:03:46;3.27;;;1.20;;
51866;SDS011;52862;52.504;13.480;2023-10-08T12:06:15;2.30;;;1.00;;
51866;SDS011;52862;52.504;13.480;2023-10-08T12:08:46;2.17;;;1.20;;
51866;SDS011;52862;52.504;13.480;2023-10-08T12:11:13;2.70;;;1.37;;
51866;SDS011;52862;52.504;13.480;2023-10-08T12:13:41;3.67;;;1.30;;
51866;SDS011;52862;52.504;13.480;2023-10-08T12:16:12;4.13;;;1.17;;
51866;SDS011;52862;52.504;13.480;2023-10-08T12:18:44;1.50;;;1.00;;
51866;SDS011;52862;52.504;13.480;2023-10-08T12:21:14;4.53;;;1.17;;
51866;SDS011;52862;52.504;13.480;2023-10-08T12:23:43;2.10;;;1.03;;
51866;SDS011;52862;52.504;13.480;2023-10-08T12:26:12;2.97;;;1.20;;
51866;SDS011;52862;52.504;13.480;2023-10-08T12:28:41;4.63;;;1.37;;
51866;SDS011;52862;52.504;13.480;2023-10-08T12:31:11;4.20;;;1.20;;
51866;SDS011;52862;52.504;13.480;2023-10-08T12:33:41;4.70;;;1.10;;
51866;SDS011;52862;52.504;13.480;2023-10-08T12:36:09;9.97;;;1.60;;
51866;SDS011;52862;52.504;13.480;2023-10-08T12:38:38;3.07;;;1.20;;
51866;SDS011;52862;52.504;13.480;2023-10-08T12:41:07;4.27;;;1.00;;
51866;SDS011;52862;52.504;13.480;2023-10-08T12:43:37;7.60;;;1.83;;
51866;SDS011;52862;52.504;13.480;2023-10-08T12:46:05;3.17;;;1.33;;
51866;SDS011;52862;52.504;13.480;2023-10-08T12:48:37;1.90;;;1.03;;
51866;SDS011;52862;52.504;13.480;2023-10-08T12:51:05;3.93;;;1.20;;
51866;SDS011;52862;52.504;13.480;2023-10-08T12:53:32;3.97;;;1.10;;
51866;SDS011;52862;52.504;13.480;2023-10-08T12:56:03;2.50;;;1.23;;
51866;SDS011;52862;52.504;13.480;2023-10-08T12:58:32;2.83;;;1.15;;
51866;SDS011;52862;52.504;13.480;2023-10-08T13:01:06;2.17;;;1.10;;
51866;SDS011;52862;52.504;13.480;2023-10-08T13:03:35;3.70;;;1.43;;
51866;SDS011;52862;52.504;13.480;2023-10-08T13:06:07;2.53;;;1.33;;
51866;SDS011;52862;52.504;13.480;2023-10-08T13:08:40;5.57;;;1.10;;
51866;SDS011;52862;52.504;13.480;2023-10-08T13:11:07;3.10;;;1.20;;
51866;SDS011;52862;52.504;13.480;2023-10-08T13:13:34;5.63;;;1.27;;
51866;SDS011;52862;52.504;13.480;2023-10-08T13:16:02;4.90;;;1.30;;
51866;SDS011;52862;52.504;13.480;2023-10-08T13:18:33;3.67;;;1.10;;
51866;SDS011;52862;52.504;13.480;2023-10-08T13:21:03;3.97;;;1.40;;
51866;SDS011;52862;52.504;13.480;2023-10-08T13:23:30;2.30;;;0.93;;
51866;SDS011;52862;52.504;13.480;2023-10-08T13:26:01;5.77;;;1.10;;
51866;SDS011;52862;52.504;13.480;2023-10-08T13:28:30;1.93;;;1.20;;
51866;SDS011;52862;52.504;13.480;2023-10-08T13:30:59;3.77;;;1.40;;
51866;SDS011;52862;52.504;13.480;2023-10-08T13:33:26;5.53;;;1.20;;
51866;SDS011;52862;52.504;13.480;2023-10-08T13:35:54;3.30;;;1.10;;
51866;SDS011;52862;52.504;13.480;2023-10-08T13:38:42;2.87;;;1.20;;
51866;SDS011;52862;52.504;13.480;2023-10-08T13:41:11;7.37;;;1.07;;
51866;SDS011;52862;52.504;13.480;2023-10-08T13:43:41;1.80;;;1.00;;
51866;SDS011;52862;52.504;13.480;2023-10-08T13:46:11;3.27;;;1.00;;
51866;SDS011;52862;52.504;13.480;2023-10-08T13:48:39;2.47;;;1.03;;
51866;SDS011;52862;52.504;13.480;2023-10-08T13:51:08;6.70;;;1.03;;
51866;SDS011;52862;52.504;13.480;2023-10-08T13:53:39;2.63;;;1.30;;
51866;SDS011;52862;52.504;13.480;2023-10-08T13:56:07;4.83;;;1.20;;
51866;SDS011;52862;52.504;13.480;2023-10-08T13:58:37;6.00;;;1.10;;
51866;SDS011;52862;52.504;13.480;2023-10-08T14:01:11;3.75;;;1.80;;
51866;SDS011;52862;52.504;13.480;2023-10-08T14:03:45;3.35;;;0.90;;
51866;SDS011;52862;52.504;13.480;2023-10-08T14:06:13;3.70;;;1.00;;
51866;SDS011;52862;52.504;13.480;2023-10-08T14:08:42;3.38;;;1.10;;
51866;SDS011;52862;52.504;13.480;2023-10-08T14:11:18;1.92;;;0.95;;
51866;SDS011;52862;52.504;13.480;2023-10-08T14:13:49;3.17;;;0.90;;
51866;SDS011;52862;52.504;13.480;2023-10-08T14:16:16;4.25;;;1.20;;
51866;SDS011;52862;52.504;13.480;2023-10-08T14:18:44;3.30;;;1.00;;
51866;SDS011;52862;52.504;13.480;2023-10-08T14:21:19;2.17;;;1.00;;
51866;SDS011;52862;52.504;13.480;2023-10-08T14:23:49;3.63;;;1.30;;
51866;SDS011;52862;52.504;13.480;2023-10-08T14:26:18;2.20;;;0.93;;
51866;SDS011;52862;52.504;13.480;2023-10-08T14:28:47;3.33;;;1.37;;
51866;SDS011;52862;52.504;13.480;2023-10-08T14:31:19;2.17;;;1.00;;
51866;SDS011;52862;52.504;13.480;2023-10-08T14:33:49;2.20;;;1.27;;
51866;SDS011;52862;52.504;13.480;2023-10-08T14:36:22;9.70;;;1.47;;
51866;SDS011;52862;52.504;13.480;2023-10-08T14:39:08;3.07;;;1.40;;
51866;SDS011;52862;52.504;13.480;2023-10-08T14:41:54;8.67;;;1.37;;
51866;SDS011;52862;52.504;13.480;2023-10-08T14:44:39;2.47;;;1.00;;
51866;SDS011;52862;52.504;13.480;2023-10-08T14:47:06;12.43;;;1.37;;
51866;SDS011;52862;52.504;13.480;2023-10-08T14:49:35;4.77;;;1.10;;
51866;SDS011;52862;52.504;13.480;2023-10-08T14:52:01;5.90;;;1.57;;
51866;SDS011;52862;52.504;13.480;2023-10-08T14:54:29;5.57;;;1.43;;